Time;durP1;ratioP1;P1;durP2;ratioP2;P2;SDS_P1;SDS_P2;PMS_P1;PMS_P2;Temp;Humidity;BMP_temperature;BMP_pressure;BME280_temperature;BME280_humidity;BME280_pressure;Samples;Min_cycle;Max_cycle;Signal;HPM_P1;HPM_P2
2022/03/21 00:00:41;;;;;;;20.85;12.07;;;;;;;8.93;72.78;101379.41;5109508;28;20026;-67
2022/03/21 00:03:08;;;;;;;22.02;10.70;;;;;;;8.99;72.19;101382.06;5109456;28;20027;-67
2022/03/21 00:05:34;;;;;;;23.15;11.35;;;;;;;9.04;72.03;101382.94;5108971;28;20020;-67
2022/03/21 00:07:59;;;;;;;21.40;11.30;;;;;;;9.06;71.59;101382.03;5109566;28;20535;-67
2022/03/21 00:10:25;;;;;;;20.85;11.13;;;;;;;9.06;72.08;101391.78;5093612;28;20391;-67
2022/03/21 00:12:51;;;;;;;23.38;10.50;;;;;;;9.01;72.41;101394.44;5071241;28;20391;-67
2022/03/21 00:15:17;;;;;;;21.15;10.38;;;;;;;8.98;72.50;101393.56;5089533;28;20443;-67
2022/03/21 00:17:43;;;;;;;23.02;11.85;;;;;;;8.75;72.14;101376.84;5103064;28;20496;-67
2022/03/21 00:20:11;;;;;;;23.63;11.77;;;;;;;8.77;72.55;101389.22;5109429;28;20039;-67
2022/03/21 00:22:37;;;;;;;20.90;11.35;;;;;;;8.73;73.28;101399.88;5105769;28;20083;-67
2022/03/21 00:25:05;;;;;;;23.02;10.65;;;;;;;8.65;73.74;101404.31;5106437;28;20431;-67
2022/03/21 00:27:32;;;;;;;21.90;11.23;;;;;;;8.63;74.23;101406.09;5109786;28;20028;-67
2022/03/21 00:29:57;;;;;;;22.10;11.30;;;;;;;8.48;74.21;101390.19;5109265;28;20047;-67
2022/03/21 00:32:23;;;;;;;18.80;10.70;;;;;;;8.48;74.17;101411.41;5109378;28;20179;-67
2022/03/21 00:34:48;;;;;;;24.17;12.65;;;;;;;8.29;74.15;101414.97;5102668;28;20427;-67
2022/03/21 00:37:14;;;;;;;19.02;9.50;;;;;;;8.13;74.20;101421.13;5089167;28;20024;-67
2022/03/21 00:39:41;;;;;;;21.15;11.43;;;;;;;7.91;74.73;101415.84;5076634;28;20024;-67
2022/03/21 00:42:06;;;;;;;22.13;12.27;;;;;;;7.82;74.84;101418.47;5105951;28;20023;-67
2022/03/21 00:44:33;;;;;;;20.77;11.02;;;;;;;7.80;75.64;101420.25;5109728;28;20031;-67
2022/03/21 00:46:58;;;;;;;21.15;10.32;;;;;;;7.76;76.05;101413.16;5112090;28;20051;-67
2022/03/21 00:49:24;;;;;;;17.90;10.48;;;;;;;7.75;78.26;101422.00;5110283;28;20058;-67
2022/03/21 00:51:49;;;;;;;19.10;9.18;;;;;;;7.69;78.38;101421.13;5074188;28;20031;-67
2022/03/21 00:54:15;;;;;;;20.70;10.48;;;;;;;7.55;78.90;101418.44;5092388;28;20027;-67
2022/03/21 00:56:40;;;;;;;17.10;9.95;;;;;;;7.40;78.61;101409.56;5092952;28;20032;-67
2022/03/21 00:59:05;;;;;;;21.25;9.65;;;;;;;7.39;78.66;101408.72;5092146;28;20016;-67
2022/03/21 01:01:32;;;;;;;21.55;10.98;;;;;;;7.33;78.91;101411.31;5092521;28;20028;-67
2022/03/21 01:03:57;;;;;;;23.73;12.43;;;;;;;7.33;79.41;101416.59;5092408;28;20539;-67
2022/03/21 01:06:23;;;;;;;19.58;9.70;;;;;;;7.29;79.35;101420.16;5092446;28;20106;-67
2022/03/21 01:08:48;;;;;;;18.55;10.30;;;;;;;7.24;79.95;101411.31;5092154;28;20693;-67
2022/03/21 01:11:14;;;;;;;24.23;10.15;;;;;;;7.24;80.34;101421.91;5092470;28;20067;-67
2022/03/21 01:13:42;;;;;;;20.33;10.88;;;;;;;7.26;79.93;101424.53;5092969;28;20097;-67
2022/03/21 01:16:11;;;;;;;20.50;10.85;;;;;;;7.23;80.22;101420.09;5093155;28;20020;-67
2022/03/21 01:18:36;;;;;;;20.85;10.82;;;;;;;7.23;80.37;101420.09;5112133;28;20047;-67
2022/03/21 01:21:02;;;;;;;19.30;10.63;;;;;;;7.27;80.44;101419.25;5093920;28;20110;-67
2022/03/21 01:23:28;;;;;;;17.98;9.88;;;;;;;7.20;80.56;101417.47;5112570;28;20052;-67
2022/03/21 01:25:53;;;;;;;23.42;11.98;;;;;;;7.16;81.06;101423.63;5112684;28;20019;-67
2022/03/21 01:28:19;;;;;;;23.77;10.90;;;;;;;7.05;81.23;101409.47;5112812;28;20031;-67
2022/03/21 01:30:44;;;;;;;19.75;10.55;;;;;;;7.07;81.57;101413.00;5112147;28;20159;-67
2022/03/21 01:33:10;;;;;;;18.70;10.40;;;;;;;7.14;81.87;101420.09;5112803;28;20035;-67
2022/03/21 01:35:35;;;;;;;18.08;9.63;;;;;;;7.15;81.83;101426.28;5093486;28;20027;-67
2022/03/21 01:38:01;;;;;;;25.92;12.32;;;;;;;6.98;82.43;101388.28;5112068;28;20052;-67
2022/03/21 01:40:27;;;;;;;18.92;11.00;;;;;;;7.16;82.74;101413.06;5096531;28;20398;-67
2022/03/21 01:42:52;;;;;;;21.02;10.77;;;;;;;7.13;82.01;101417.44;5098700;28;20488;-67
2022/03/21 01:45:19;;;;;;;21.75;10.30;;;;;;;7.02;82.14;101414.75;5092075;28;20024;-67
2022/03/21 01:47:46;;;;;;;20.20;10.75;;;;;;;6.92;82.25;101402.34;5091691;28;20027;-67
2022/03/21 01:50:13;;;;;;;21.70;10.88;;;;;;;6.96;82.99;101413.84;5091490;28;20032;-67
2022/03/21 01:52:42;;;;;;;22.15;11.23;;;;;;;6.89;83.60;101396.16;5090885;28;20035;-67
2022/03/21 01:57:52;;;;;;;24.77;13.13;;;;;;;6.98;82.96;101412.97;5091254;28;20042;-67
2022/03/21 02:00:18;;;;;;;21.15;11.50;;;;;;;6.96;83.36;101404.16;5091544;28;20463;-67
2022/03/21 02:02:44;;;;;;;21.23;10.73;;;;;;;6.99;82.96;101409.44;5104176;28;20028;-67
2022/03/21 02:05:10;;;;;;;21.52;10.90;;;;;;;7.08;82.49;101420.09;5111885;28;20024;-67
2022/03/21 02:07:35;;;;;;;26.42;12.00;;;;;;;7.02;82.77;101412.09;5112051;28;20039;-67
2022/03/21 02:10:03;;;;;;;23.98;12.18;;;;;;;6.95;83.06;101407.69;5099332;28;20471;-67
2022/03/21 02:12:29;;;;;;;25.10;10.48;;;;;;;6.85;82.75;101419.09;5091509;28;20031;-67
2022/03/21 02:14:55;;;;;;;24.33;11.23;;;;;;;6.71;82.94;101404.91;5091595;28;20028;-67
2022/03/21 02:17:24;;;;;;;23.77;11.57;;;;;;;6.77;83.01;101419.94;5098521;28;20090;-67
2022/03/21 02:19:51;;;;;;;24.20;11.30;;;;;;;6.76;83.15;101416.41;5110797;28;20043;-67
2022/03/21 02:22:29;;;;;;;21.80;11.23;;;;;;;6.79;83.06;101410.25;5111759;28;20373;-67
2022/03/21 02:25:13;;;;;;;20.70;11.55;;;;;;;6.85;84.11;101421.75;5111696;28;20467;-67
2022/03/21 02:27:40;;;;;;;20.38;10.77;;;;;;;6.75;83.48;101419.03;5111884;28;20024;-67
2022/03/21 02:30:06;;;;;;;22.63;12.00;;;;;;;6.86;83.16;101434.06;5107452;28;20027;-67
2022/03/21 02:32:31;;;;;;;23.88;12.57;;;;;;;6.77;83.11;101420.78;5111440;28;20027;-67
2022/03/21 02:34:58;;;;;;;22.45;11.80;;;;;;;6.78;82.89;101408.47;5096633;28;20092;-67
2022/03/21 02:37:25;;;;;;;19.65;10.98;;;;;;;6.76;83.17;101421.69;5090833;28;20038;-67
2022/03/21 02:39:52;;;;;;;17.23;10.38;;;;;;;6.65;83.19;101420.75;5100133;28;20082;-67
2022/03/21 02:42:18;;;;;;;18.40;9.98;;;;;;;6.46;82.18;101429.44;5100068;28;20088;-67
2022/03/21 02:44:43;;;;;;;20.08;10.38;;;;;;;6.35;82.63;101428.47;5090649;28;20032;-67
2022/03/21 02:47:10;;;;;;;19.08;10.70;;;;;;;6.26;82.66;101428.44;5090984;28;20439;-67
2022/03/21 02:49:36;;;;;;;16.02;9.05;;;;;;;6.25;83.22;101431.94;5090295;28;20040;-67
2022/03/21 02:52:04;;;;;;;21.13;11.65;;;;;;;6.28;83.67;101437.22;5090994;28;20028;-67
2022/03/21 02:54:30;;;;;;;19.75;9.85;;;;;;;6.28;83.48;101431.94;5090751;28;20042;-67
2022/03/21 02:56:57;;;;;;;19.35;10.77;;;;;;;6.26;83.69;101433.72;5090668;28;20475;-67
2022/03/21 02:59:22;;;;;;;19.30;10.77;;;;;;;6.25;84.04;101427.53;5089739;28;20391;-67
2022/03/21 03:01:53;;;;;;;17.27;10.38;;;;;;;6.25;84.68;101424.00;5090551;28;20024;-68
2022/03/21 03:04:23;;;;;;;25.58;11.50;;;;;;;6.36;84.44;101425.84;5089767;28;20020;-68
2022/03/21 03:06:49;;;;;;;17.75;9.95;;;;;;;6.31;84.51;101419.63;5090403;28;20031;-68
2022/03/21 03:09:15;;;;;;;22.52;10.88;;;;;;;6.40;84.49;101430.28;5089759;28;20024;-67
2022/03/21 03:11:41;;;;;;;20.52;11.45;;;;;;;6.39;84.77;101435.56;5090663;28;20781;-67
2022/03/21 03:14:07;;;;;;;19.67;10.48;;;;;;;6.26;84.92;101433.72;5090271;28;20028;-67
2022/03/21 03:16:32;;;;;;;21.30;11.48;;;;;;;6.21;85.25;101430.16;5094261;28;20038;-67
2022/03/21 03:18:58;;;;;;;19.30;10.02;;;;;;;6.19;84.83;101431.91;5110441;28;20043;-67
2022/03/21 03:21:26;;;;;;;19.92;11.20;;;;;;;6.27;85.25;101446.94;5110745;28;20020;-67
2022/03/21 03:23:53;;;;;;;18.13;11.02;;;;;;;6.12;85.36;101416.84;5110653;28;20023;-67
2022/03/21 03:26:18;;;;;;;23.15;10.65;;;;;;;6.34;85.26;101442.56;5110370;28;20022;-67
2022/03/21 03:28:47;;;;;;;20.73;11.80;;;;;;;6.35;85.32;101449.63;5109699;28;20024;-67
2022/03/21 03:31:17;;;;;;;21.30;10.50;;;;;;;6.32;85.24;101445.22;5109761;28;20027;-67
2022/03/21 03:33:45;;;;;;;23.17;11.57;;;;;;;6.24;85.30;101430.16;5110340;28;20123;-67
2022/03/21 03:36:11;;;;;;;24.70;11.80;;;;;;;6.28;85.70;101447.78;5110630;28;20019;-67
2022/03/21 03:38:37;;;;;;;21.25;11.10;;;;;;;6.26;86.00;101450.44;5104009;28;20020;-67
2022/03/21 03:41:03;;;;;;;22.77;11.52;;;;;;;6.34;85.87;101458.44;5091656;28;20541;-67
2022/03/21 03:43:29;;;;;;;21.08;10.95;;;;;;;6.27;85.39;101454.88;5094587;28;20388;-67
2022/03/21 03:45:57;;;;;;;23.85;12.23;;;;;;;6.22;86.36;101453.94;5071371;28;20016;-67
2022/03/21 03:48:22;;;;;;;21.05;11.15;;;;;;;6.30;86.02;101452.25;5088971;28;20055;-67
2022/03/21 03:50:48;;;;;;;19.88;10.80;;;;;;;6.25;86.11;101447.78;5088830;28;20424;-67
2022/03/21 03:53:15;;;;;;;21.67;10.82;;;;;;;6.19;86.44;101458.31;5089850;28;20024;-67
2022/03/21 03:55:42;;;;;;;23.48;10.88;;;;;;;6.21;86.64;101456.56;5078565;28;20030;-68
2022/03/21 03:58:07;;;;;;;22.20;10.90;;;;;;;6.03;86.59;101435.28;5109776;28;20105;-68
2022/03/21 04:00:33;;;;;;;23.17;11.48;;;;;;;6.24;86.68;101459.22;5109605;28;20071;-68
2022/03/21 04:05:44;;;;;;;21.85;10.55;;;;;;;6.12;86.78;101462.66;5110013;28;20038;-68
2022/03/21 04:08:09;;;;;;;20.02;11.32;;;;;;;6.08;87.10;101460.84;5110357;28;20061;-68
2022/03/21 04:10:35;;;;;;;23.98;12.23;;;;;;;6.07;86.89;101466.13;5092853;28;20066;-68
2022/03/21 04:13:00;;;;;;;21.08;10.85;;;;;;;6.01;86.92;101463.44;5089683;28;20020;-68
2022/03/21 04:15:26;;;;;;;23.60;11.20;;;;;;;6.03;86.73;101470.50;5090839;28;20157;-68
2022/03/21 04:17:53;;;;;;;21.20;10.00;;;;;;;6.05;86.58;101468.75;5105672;28;20525;-68
2022/03/21 04:20:18;;;;;;;19.77;10.23;;;;;;;6.10;86.76;101468.78;5113202;28;20047;-68
2022/03/21 04:22:44;;;;;;;18.20;10.50;;;;;;;6.09;87.42;101472.31;5113764;28;20027;-68
2022/03/21 04:25:10;;;;;;;22.90;10.00;;;;;;;6.07;87.40;101471.41;5113934;28;20389;-68
2022/03/21 04:27:37;;;;;;;19.55;10.90;;;;;;;6.09;87.67;101470.56;5102721;28;20031;-68
2022/03/21 04:30:03;;;;;;;22.23;11.95;;;;;;;5.98;87.67;101458.13;5095075;28;20081;-68
2022/03/21 04:32:29;;;;;;;18.05;10.00;;;;;;;6.10;87.76;101479.34;5075372;28;20035;-68
2022/03/21 04:34:55;;;;;;;20.60;11.02;;;;;;;6.08;87.57;101483.75;5074277;28;20016;-68
2022/03/21 04:37:20;;;;;;;23.55;11.00;;;;;;;6.09;87.35;101482.88;5095588;28;20024;-68
2022/03/21 04:39:46;;;;;;;28.65;11.05;;;;;;;6.15;88.02;101483.81;5092480;28;20069;-68
2022/03/21 04:42:12;;;;;;;19.20;10.68;;;;;;;6.18;88.08;101486.47;5101221;28;20035;-68
2022/03/21 04:44:39;;;;;;;23.70;11.23;;;;;;;6.24;87.67;101504.16;5112118;28;20490;-68
2022/03/21 04:47:06;;;;;;;21.33;12.40;;;;;;;6.21;87.23;101502.34;5110197;28;20020;-68
2022/03/21 04:49:31;;;;;;;25.27;12.43;;;;;;;6.21;87.96;101501.47;5112853;28;20031;-68
2022/03/21 04:51:57;;;;;;;23.23;11.75;;;;;;;6.15;87.96;101504.94;5113186;28;20028;-68
2022/03/21 04:54:22;;;;;;;23.95;12.43;;;;;;;6.06;88.65;101511.91;5113621;28;20023;-68
2022/03/21 04:56:48;;;;;;;21.02;10.55;;;;;;;6.17;87.90;101519.06;5113511;28;20532;-67
2022/03/21 04:59:13;;;;;;;20.65;11.43;;;;;;;6.27;87.33;101520.03;5112721;28;20454;-67
2022/03/21 05:01:38;;;;;;;23.80;11.20;;;;;;;6.08;87.30;101507.53;5113435;28;20069;-67
2022/03/21 05:04:04;;;;;;;30.45;13.18;;;;;;;6.14;87.78;101520.78;5113013;28;20028;-67
2022/03/21 05:06:30;;;;;;;19.98;11.30;;;;;;;6.14;87.02;101512.84;5113158;28;20023;-67
2022/03/21 05:08:55;;;;;;;23.38;11.98;;;;;;;5.86;86.68;101500.25;5109875;28;20023;-67
2022/03/21 05:11:20;;;;;;;20.17;10.50;;;;;;;5.89;86.93;101526.69;5092570;28;20028;-66
2022/03/21 05:13:46;;;;;;;22.00;11.23;;;;;;;5.76;87.36;101511.56;5074446;28;20115;-66
2022/03/21 05:16:11;;;;;;;23.58;12.55;;;;;;;5.79;87.28;101530.06;5093745;28;20028;-66
2022/03/21 05:18:37;;;;;;;24.20;11.85;;;;;;;5.59;87.83;101515.75;5113066;28;20617;-67
2022/03/21 05:21:04;;;;;;;25.83;11.40;;;;;;;5.69;88.49;101525.53;5112259;28;20095;-67
2022/03/21 05:31:42;;;;;;;22.48;11.43;;;;;;;5.98;89.19;101529.44;5101431;28;20031;-67
2022/03/21 05:36:53;;;;;;;24.33;11.32;;;;;;;6.06;89.05;101538.31;5092107;28;20429;-68
2022/03/21 05:39:18;;;;;;;27.27;12.20;;;;;;;6.07;88.97;101533.03;5091461;28;20035;-68
2022/03/21 05:41:44;;;;;;;24.38;11.40;;;;;;;6.12;88.65;101541.00;5098352;28;20025;-68
2022/03/21 05:44:11;;;;;;;24.30;11.20;;;;;;;6.11;88.60;101540.13;5092948;28;20019;-68
2022/03/21 05:46:37;;;;;;;23.85;10.50;;;;;;;6.06;89.00;101525.09;5091869;28;20547;-68
2022/03/21 05:49:03;;;;;;;24.33;12.52;;;;;;;6.25;89.49;101545.53;5091497;28;20371;-68
2022/03/21 05:51:32;;;;;;;28.50;14.75;;;;;;;6.38;89.76;101544.75;5111324;28;20027;-68
2022/03/21 05:54:19;;;;;;;25.60;13.38;;;;;;;6.44;88.77;101524.56;5112400;28;20031;-68
2022/03/21 05:56:45;;;;;;;21.20;12.00;;;;;;;6.60;88.38;101541.44;5111217;28;20044;-68
2022/03/21 06:01:55;;;;;;;25.80;10.95;;;;;;;6.80;87.38;101541.56;5112315;28;20450;-68
2022/03/21 06:04:23;;;;;;;21.60;11.93;;;;;;;6.89;86.76;101555.75;5093997;28;20098;-68
2022/03/21 06:06:48;;;;;;;20.10;10.65;;;;;;;7.05;86.30;101552.31;5096151;28;20028;-68
2022/03/21 06:09:15;;;;;;;21.25;10.65;;;;;;;7.20;85.91;101552.41;5090925;28;20034;-68
2022/03/21 06:11:41;;;;;;;25.05;10.52;;;;;;;7.35;85.16;101555.13;5091478;28;20035;-68
2022/03/21 06:14:07;;;;;;;26.25;11.38;;;;;;;7.32;84.29;101514.53;5091497;28;20020;-68
2022/03/21 06:16:33;;;;;;;21.85;10.88;;;;;;;7.74;83.83;101546.47;5095315;28;20482;-68
2022/03/21 06:19:00;;;;;;;22.65;10.95;;;;;;;8.45;83.90;101566.06;5111269;28;20044;-68
2022/03/21 06:21:28;;;;;;;24.88;11.88;;;;;;;9.28;80.42;101558.91;5110807;28;20027;-68
2022/03/21 06:23:54;;;;;;;27.55;14.18;;;;;;;10.29;76.91;101565.53;5093207;28;20020;-68
2022/03/21 06:26:20;;;;;;;22.95;12.30;;;;;;;10.98;72.14;101542.78;5093295;28;20584;-68
2022/03/21 06:28:46;;;;;;;22.75;11.73;;;;;;;11.90;67.82;101571.94;5101922;28;20114;-68
2022/03/21 06:31:11;;;;;;;25.95;12.27;;;;;;;12.50;62.83;101562.16;5099763;28;20105;-68
2022/03/21 06:33:37;;;;;;;25.08;12.85;;;;;;;12.98;60.06;101580.91;5105492;28;20070;-68
2022/03/21 06:36:02;;;;;;;22.45;13.38;;;;;;;13.17;57.58;101577.03;5088711;28;20704;-68
2022/03/21 06:38:29;;;;;;;25.23;14.55;;;;;;;13.71;56.14;101579.53;5107220;28;20102;-68
2022/03/21 06:40:55;;;;;;;22.58;13.70;;;;;;;14.31;54.63;101580.94;5092338;28;20028;-68
2022/03/21 06:43:22;;;;;;;23.88;12.43;;;;;;;14.93;52.79;101588.31;5103172;28;20047;-68
2022/03/21 06:45:50;;;;;;;23.45;12.32;;;;;;;15.37;50.75;101587.19;5111227;28;20454;-68
2022/03/21 06:48:17;;;;;;;23.55;13.15;;;;;;;15.87;49.19;101594.69;5111045;28;20125;-68
2022/03/21 06:50:43;;;;;;;25.38;12.98;;;;;;;16.28;48.14;101591.66;5110625;28;20080;-68
2022/03/21 06:53:08;;;;;;;42.00;17.05;;;;;;;16.69;46.58;101603.78;5111227;28;20035;-68
2022/03/21 06:55:34;;;;;;;75.07;29.98;;;;;;;17.13;45.11;101591.56;5111030;28;20023;-68
2022/03/21 06:58:03;;;;;;;78.90;32.60;;;;;;;17.46;43.92;101583.22;5092582;28;20122;-68
2022/03/21 07:00:29;;;;;;;35.17;17.70;;;;;;;17.66;43.43;101591.44;5110486;28;20016;-68
2022/03/21 07:02:54;;;;;;;20.52;11.65;;;;;;;17.27;43.80;101600.91;5110926;28;20031;-68
2022/03/21 07:05:20;;;;;;;20.15;10.77;;;;;;;17.54;43.82;101610.75;5110856;28;20483;-68
2022/03/21 07:07:47;;;;;;;21.15;12.45;;;;;;;18.22;42.81;101603.66;5092551;28;20377;-68
2022/03/21 07:10:12;;;;;;;23.25;12.55;;;;;;;18.84;41.22;101611.09;5096617;28;20428;-68
2022/03/21 07:12:38;;;;;;;48.53;25.08;;;;;;;19.22;39.75;101610.38;5090633;28;20095;-68
2022/03/21 07:15:05;;;;;;;26.30;14.05;;;;;;;19.41;39.96;101601.44;5089502;28;20032;-68
2022/03/21 07:17:30;;;;;;;25.52;14.48;;;;;;;19.11;40.26;101593.78;5083142;28;20056;-68
2022/03/21 07:19:56;;;;;;;20.25;11.55;;;;;;;19.51;39.81;101601.91;5110172;28;20047;-68
2022/03/21 07:22:21;;;;;;;26.30;12.38;;;;;;;19.67;39.59;101602.13;5110700;28;20053;-68
2022/03/21 07:24:46;;;;;;;22.75;12.07;;;;;;;19.87;39.45;101604.81;5094330;28;20027;-68
2022/03/21 07:27:12;;;;;;;25.75;11.73;;;;;;;19.99;38.37;101607.81;5090002;28;20028;-68
2022/03/21 07:29:38;;;;;;;23.58;12.02;;;;;;;19.95;39.63;101606.19;5090162;28;20111;-68
2022/03/21 07:32:04;;;;;;;21.25;11.50;;;;;;;19.98;38.98;101624.97;5090168;28;20024;-68
2022/03/21 07:34:29;;;;;;;19.75;10.63;;;;;;;20.01;38.44;101624.84;5089550;28;20053;-68
2022/03/21 07:36:55;;;;;;;20.85;11.52;;;;;;;20.33;37.81;101626.09;5090264;28;20024;-68
2022/03/21 07:39:20;;;;;;;20.00;11.38;;;;;;;20.14;37.61;101619.72;5089544;28;20033;-68
2022/03/21 07:41:46;;;;;;;19.08;10.88;;;;;;;20.32;37.11;101630.59;5096304;28;20016;-68
2022/03/21 07:47:17;;;;;;;19.88;11.20;;;;;;;20.57;37.74;101639.31;5090660;28;20032;-68
2022/03/21 07:49:41;;;;;;;19.48;11.18;;;;;;;21.03;36.65;101639.78;5089693;28;20062;-68
2022/03/21 07:52:07;;;;;;;18.67;10.52;;;;;;;21.49;34.99;101639.19;5093963;28;20031;-68
2022/03/21 07:54:33;;;;;;;23.60;11.73;;;;;;;21.41;34.85;101644.13;5094367;28;20107;-68
2022/03/21 07:56:58;;;;;;;18.15;11.20;;;;;;;21.42;34.47;101638.63;5095343;28;20015;-68
2022/03/21 07:59:25;;;;;;;18.95;10.77;;;;;;;20.87;35.18;101640.50;5113334;28;20080;-68
2022/03/21 08:01:50;;;;;;;18.77;10.63;;;;;;;21.01;35.60;101647.97;5114506;28;20408;-68
2022/03/21 08:04:17;;;;;;;19.63;11.48;;;;;;;20.92;36.43;101638.44;5114639;28;20024;-68
2022/03/21 08:06:44;;;;;;;18.63;10.63;;;;;;;20.56;35.96;101647.50;5114127;28;20031;-68
2022/03/21 08:09:09;;;;;;;20.08;11.63;;;;;;;20.57;36.23;101635.72;5109244;28;20027;-68
2022/03/21 08:11:35;;;;;;;20.73;11.07;;;;;;;20.94;35.89;101644.66;5093491;28;20081;-68
2022/03/21 08:14:00;;;;;;;19.85;10.65;;;;;;;20.98;34.64;101648.13;5093800;28;20024;-68
2022/03/21 08:16:26;;;;;;;18.60;10.57;;;;;;;20.67;35.48;101648.69;5095536;28;20015;-68
2022/03/21 08:18:52;;;;;;;20.67;10.90;;;;;;;20.57;34.99;101644.72;5113730;28;20464;-68
2022/03/21 08:21:19;;;;;;;17.15;10.00;;;;;;;20.82;35.56;101639.00;5101791;28;20391;-68
2022/03/21 08:23:46;;;;;;;19.10;11.13;;;;;;;20.57;35.21;101646.53;5103813;28;20018;-68
2022/03/21 08:26:12;;;;;;;23.42;12.15;;;;;;;20.50;35.08;101640.53;5096376;28;20023;-68
2022/03/21 08:28:37;;;;;;;19.27;10.13;;;;;;;20.05;35.70;101642.63;5110011;28;20030;-68
2022/03/21 08:31:03;;;;;;;19.33;10.77;;;;;;;20.49;35.49;101649.59;5113239;28;20157;-68
2022/03/21 08:33:29;;;;;;;17.27;10.13;;;;;;;20.34;35.73;101647.63;5114038;28;20161;-68
2022/03/21 08:35:54;;;;;;;18.45;10.45;;;;;;;20.43;37.15;101649.88;5094376;28;20084;-68
2022/03/21 08:38:20;;;;;;;22.15;10.50;;;;;;;20.61;35.23;101649.00;5112847;28;20551;-68
2022/03/21 08:40:46;;;;;;;19.42;10.88;;;;;;;20.77;35.15;101647.31;5093693;28;20512;-68
2022/03/21 08:43:11;;;;;;;21.77;11.13;;;;;;;21.09;35.68;101644.91;5098848;28;20467;-68
2022/03/21 08:45:37;;;;;;;19.27;10.70;;;;;;;21.15;33.96;101645.47;5093357;28;20020;-68
2022/03/21 08:48:05;;;;;;;17.27;10.35;;;;;;;21.03;34.24;101639.78;5103347;28;20034;-67
2022/03/21 08:50:33;;;;;;;17.02;10.15;;;;;;;20.65;35.08;101649.75;5112594;28;20023;-68
2022/03/21 08:52:58;;;;;;;20.83;11.77;;;;;;;21.19;35.14;101638.94;5113421;28;20048;-67
2022/03/21 08:55:24;;;;;;;20.45;11.00;;;;;;;21.27;34.74;101649.41;5113410;28;20135;-67
2022/03/21 08:57:51;;;;;;;18.33;10.40;;;;;;;21.18;34.27;101645.31;5113314;28;20027;-67
2022/03/21 09:00:16;;;;;;;18.83;10.82;;;;;;;20.89;35.87;101644.00;5112489;28;20023;-67
2022/03/21 09:02:45;;;;;;;18.73;11.00;;;;;;;21.20;36.23;101631.69;5111062;28;20468;-67
2022/03/21 09:05:13;;;;;;;17.23;10.65;;;;;;;21.62;34.48;101634.88;5112561;28;20030;-67
2022/03/21 09:07:40;;;;;;;20.58;11.20;;;;;;;21.81;33.82;101619.47;5113222;28;20062;-67
2022/03/21 09:10:07;;;;;;;19.10;10.80;;;;;;;22.19;35.09;101632.69;5099794;28;20031;-67
2022/03/21 09:12:33;;;;;;;16.35;9.60;;;;;;;21.88;34.01;101639.84;5092756;28;20024;-67
2022/03/21 09:14:59;;;;;;;18.42;10.60;;;;;;;22.34;35.13;101640.94;5092135;28;20027;-67
2022/03/21 09:17:26;;;;;;;18.25;11.05;;;;;;;22.63;34.03;101635.69;5102380;28;20016;-67
2022/03/21 09:19:52;;;;;;;20.55;10.60;;;;;;;22.79;33.02;101633.84;5111423;28;20078;-67
2022/03/21 09:22:18;;;;;;;22.20;9.95;;;;;;;22.96;32.43;101633.75;5112701;28;20036;-67
2022/03/21 09:24:43;;;;;;;17.25;9.90;;;;;;;23.09;32.25;101637.50;5112643;28;20084;-67
2022/03/21 09:27:10;;;;;;;18.83;10.20;;;;;;;23.15;31.28;101636.25;5112891;28;20106;-67
2022/03/21 09:29:36;;;;;;;20.55;10.63;;;;;;;22.81;32.46;101636.47;5111210;28;20058;-67
2022/03/21 09:32:01;;;;;;;18.25;10.18;;;;;;;23.04;31.50;101639.59;5112447;28;20058;-67
2022/03/21 09:34:28;;;;;;;17.83;10.38;;;;;;;23.07;32.20;101633.97;5111762;28;20077;-67
2022/03/21 09:36:57;;;;;;;17.33;10.02;;;;;;;23.27;31.94;101638.28;5112476;28;20106;-67
2022/03/21 09:39:22;;;;;;;20.60;10.43;;;;;;;23.55;31.28;101634.78;5105362;28;20024;-67
2022/03/21 09:41:48;;;;;;;19.90;11.98;;;;;;;23.70;31.19;101631.13;5098813;28;20171;-67
2022/03/21 09:44:14;;;;;;;17.30;10.05;;;;;;;23.79;31.59;101627.88;5092092;28;20031;-67
2022/03/21 09:46:42;;;;;;;15.35;10.38;;;;;;;23.91;31.53;101627.06;5092335;28;20543;-67
2022/03/21 09:49:10;;;;;;;16.27;9.05;;;;;;;23.83;29.86;101629.41;5091354;28;20032;-67
2022/03/21 09:51:36;;;;;;;17.45;10.30;;;;;;;24.00;30.38;101626.56;5090790;28;20471;-67
2022/03/21 09:54:02;;;;;;;18.73;9.80;;;;;;;23.76;30.74;101614.44;5090647;28;20066;-67
2022/03/21 09:56:29;;;;;;;16.10;9.52;;;;;;;24.04;29.57;101617.22;5091921;28;20468;-67
2022/03/21 09:59:01;;;;;;;14.55;8.95;;;;;;;24.35;32.01;101614.28;5090912;28;20449;-67
2022/03/21 10:01:34;;;;;;;17.75;9.25;;;;;;;24.75;30.57;101616.22;5091322;28;20494;-67
2022/03/21 10:04:00;;;;;;;15.00;8.88;;;;;;;24.17;30.71;101618.19;5102774;28;20019;-67
2022/03/21 10:06:32;;;;;;;15.52;8.88;;;;;;;24.76;29.77;101608.94;5111988;28;20386;-67
2022/03/21 10:09:20;;;;;;;16.00;9.95;;;;;;;24.92;28.83;101612.38;5108661;28;20035;-67
2022/03/21 10:11:58;;;;;;;15.05;9.70;;;;;;;24.95;30.40;101613.06;5091111;28;20039;-67
2022/03/21 10:14:34;;;;;;;23.85;10.43;;;;;;;24.86;31.90;101602.75;5094910;28;20034;-67
2022/03/21 10:17:03;;;;;;;17.02;10.07;;;;;;;25.03;29.80;101594.34;5107740;28;20023;-67
2022/03/21 10:19:47;;;;;;;18.83;9.80;;;;;;;25.41;29.96;101598.09;4639508;28;20044;-67
2022/03/21 10:22:19;;;;;;;18.92;9.30;;;;;;;25.52;29.53;101594.59;5090940;28;20036;-67
2022/03/21 10:24:47;;;;;;;18.27;10.38;;;;;;;25.56;29.32;101582.53;5091124;28;20454;-68
2022/03/21 10:27:36;;;;;;;16.23;10.15;;;;;;;25.60;29.53;101584.91;5093674;28;20031;-68
2022/03/21 10:30:10;;;;;;;16.67;9.55;;;;;;;25.38;29.15;101584.69;5090642;28;20097;-68
2022/03/21 10:32:39;;;;;;;16.95;9.48;;;;;;;25.58;29.71;101584.19;5090487;28;20072;-68
2022/03/21 10:35:09;;;;;;;21.92;10.82;;;;;;;25.92;28.54;101586.25;5101606;28;20032;-68
2022/03/21 10:37:50;;;;;;;19.20;9.40;;;;;;;25.80;29.20;101581.66;5110518;28;20075;-68
2022/03/21 10:40:33;;;;;;;18.92;9.70;;;;;;;25.83;27.95;101581.44;5094433;28;20674;-68
2022/03/21 10:43:05;;;;;;;17.88;10.18;;;;;;;26.06;30.44;101576.25;5080404;28;20028;-68
2022/03/21 10:45:36;;;;;;;19.45;10.13;;;;;;;26.13;28.92;101583.00;5090963;28;20506;-68
2022/03/21 10:48:05;;;;;;;18.00;10.30;;;;;;;24.66;28.64;101582.28;5073717;28;20057;-67
2022/03/21 10:50:36;;;;;;;17.40;9.32;;;;;;;23.60;31.03;101583.75;5089974;28;20042;-67
2022/03/21 10:53:10;;;;;;;17.52;9.90;;;;;;;24.00;30.81;101577.63;5093285;28;20020;-67
2022/03/21 10:55:36;;;;;;;15.80;8.85;;;;;;;24.37;31.41;101577.00;5089732;28;20049;-67
2022/03/21 10:58:02;;;;;;;18.92;10.23;;;;;;;24.51;30.42;101575.13;5090742;28;20118;-67
2022/03/21 11:00:28;;;;;;;19.13;9.90;;;;;;;25.14;29.92;101563.69;5089862;28;20095;-67
2022/03/21 11:03:05;;;;;;;16.52;8.73;;;;;;;25.45;28.12;101569.63;5090714;28;20438;-67
2022/03/21 11:05:33;;;;;;;17.55;9.50;;;;;;;25.93;28.59;101566.19;5090012;28;20027;-67
2022/03/21 11:07:58;;;;;;;18.45;9.13;;;;;;;26.20;28.32;101562.47;5090249;28;20373;-67
2022/03/21 11:10:26;;;;;;;15.38;8.75;;;;;;;26.06;26.35;101559.88;5089618;28;20082;-67
2022/03/21 11:12:57;;;;;;;17.83;8.60;;;;;;;25.98;27.96;101554.94;5090816;28;20024;-67
2022/03/21 11:15:24;;;;;;;15.75;8.25;;;;;;;26.36;28.48;101552.19;5090256;28;20081;-67
2022/03/21 11:17:49;;;;;;;14.60;7.93;;;;;;;26.49;27.35;101553.88;5105141;28;20053;-67
2022/03/21 11:20:15;;;;;;;15.00;8.63;;;;;;;26.73;27.79;101551.22;5109874;28;20039;-67
2022/03/21 11:22:42;;;;;;;15.13;8.23;;;;;;;26.61;27.91;101542.06;5111071;28;20378;-67
2022/03/21 11:25:13;;;;;;;14.98;8.15;;;;;;;26.61;27.75;101544.78;5110086;28;20031;-67
2022/03/21 11:28:17;;;;;;;14.38;8.13;;;;;;;26.61;28.09;101542.06;5110890;28;20024;-67
2022/03/21 11:31:01;;;;;;;15.40;7.95;;;;;;;26.98;26.69;101540.19;5108387;28;20080;-67
2022/03/21 11:33:46;;;;;;;;;;;;;;;26.96;26.67;101536.69;5111254;28;20494;-67
2022/03/21 11:36:12;;;;;;;17.13;8.40;;;;;;;26.51;27.83;101531.94;5057516;28;20014;-67